Time;durP1;ratioP1;P1;durP2;ratioP2;P2;SDS_P1;SDS_P2;PMS_P1;PMS_P2;Temp;Humidity;BMP_temperature;BMP_pressure;BME280_temperature;BME280_humidity;BME280_pressure;Samples;Min_cycle;Max_cycle;Signal;HPM_P1;HPM_P2
2022/02/13 00:01:00;;;;;;;8.20;4.78;;;;;;;-2.13;93.54;99133.22;4168393;28;20443;-71
2022/02/13 00:03:01;;;;;;;8.90;4.55;;;;;;;-2.15;94.92;99129.97;4168965;28;20403;-71
2022/02/13 00:05:01;;;;;;;6.88;4.32;;;;;;;-2.16;94.62;99120.22;4168325;28;20124;-71
2022/02/13 00:07:02;;;;;;;9.27;5.78;;;;;;;-2.13;95.79;99123.19;4166970;28;20405;-71
2022/02/13 00:09:02;;;;;;;10.10;5.82;;;;;;;-2.06;96.91;99112.84;4168933;28;20216;-71
2022/02/13 00:11:03;;;;;;;12.23;6.10;;;;;;;-2.05;94.31;99106.34;4168120;28;20044;-71
2022/02/13 00:13:03;;;;;;;10.13;5.32;;;;;;;-2.02;93.90;99111.19;4168754;28;20036;-71
2022/02/13 00:15:05;;;;;;;10.95;5.38;;;;;;;-1.93;94.04;99106.00;4168359;28;20041;-71
2022/02/13 00:17:06;;;;;;;9.27;5.47;;;;;;;-1.94;93.46;99103.56;4166909;28;20033;-71
2022/02/13 00:19:07;;;;;;;7.93;5.22;;;;;;;-1.94;93.28;99107.06;4168280;28;20049;-71
2022/02/13 00:21:07;;;;;;;9.07;5.28;;;;;;;-1.91;92.46;99100.28;4167776;28;20068;-71
2022/02/13 00:23:08;;;;;;;8.85;4.88;;;;;;;-1.89;93.17;99100.81;4168387;28;20052;-71
2022/02/13 00:25:09;;;;;;;11.80;5.38;;;;;;;-1.91;92.30;99098.38;4168206;28;20048;-71
2022/02/13 00:27:10;;;;;;;8.77;5.00;;;;;;;-1.88;92.28;99100.53;4167499;28;20400;-71
2022/02/13 00:29:10;;;;;;;7.75;4.97;;;;;;;-1.85;92.12;99099.16;4167790;28;20052;-71
2022/02/13 00:31:10;;;;;;;10.90;5.93;;;;;;;-1.79;91.31;99095.31;4170552;28;20598;-71
2022/02/13 00:33:11;;;;;;;11.63;5.35;;;;;;;-1.75;90.91;99093.66;4171646;28;20105;-71
2022/02/13 00:35:15;;;;;;;8.57;5.47;;;;;;;-1.57;89.38;99089.44;4172296;28;20045;-71
2022/02/13 00:37:16;;;;;;;7.88;4.90;;;;;;;-1.30;87.63;99070.78;4169162;28;20049;-71
2022/02/13 00:39:16;;;;;;;8.30;5.00;;;;;;;-1.18;87.83;99073.91;4173183;28;20048;-71
2022/02/13 00:41:17;;;;;;;10.68;5.15;;;;;;;-1.10;86.20;99064.31;4173612;28;20126;-71
2022/02/13 00:43:17;;;;;;;8.77;4.88;;;;;;;-1.00;85.39;99071.56;4172296;28;20292;-71
2022/02/13 00:45:18;;;;;;;8.60;4.93;;;;;;;-1.05;85.45;99056.13;4173504;28;20049;-71
2022/02/13 00:47:18;;;;;;;8.85;5.05;;;;;;;-1.05;85.76;99056.13;4171448;28;20045;-71
2022/02/13 00:49:19;;;;;;;11.52;5.68;;;;;;;-1.04;87.16;99055.03;4172040;28;20045;-71
2022/02/13 00:51:20;;;;;;;9.55;4.72;;;;;;;-1.06;88.22;99059.94;4171950;28;20052;-71
2022/02/13 00:53:20;;;;;;;9.15;5.75;;;;;;;-1.03;86.76;99064.81;4171853;28;20056;-71
2022/02/13 00:55:21;;;;;;;8.68;5.68;;;;;;;-1.01;88.00;99061.78;4172274;28;20037;-71
2022/02/13 00:57:21;;;;;;;10.73;5.95;;;;;;;-1.03;88.35;99064.00;4170896;28;20041;-71
2022/02/13 00:59:22;;;;;;;8.10;5.30;;;;;;;-1.07;88.21;99071.09;4172023;28;20048;-71
2022/02/13 01:01:22;;;;;;;10.32;6.07;;;;;;;-1.11;89.82;99064.63;4171342;28;20033;-71
2022/02/13 01:03:22;;;;;;;8.93;5.28;;;;;;;-1.22;88.52;99055.78;4171686;28;20083;-71
2022/02/13 01:05:23;;;;;;;8.80;5.40;;;;;;;-1.29;89.87;99066.97;4172221;28;20091;-71
2022/02/13 01:07:23;;;;;;;8.93;4.95;;;;;;;-1.37;90.85;99064.06;4170337;28;20111;-71
2022/02/13 01:09:23;;;;;;;9.10;5.03;;;;;;;-1.48;89.30;99068.78;4170652;28;20080;-71
2022/02/13 01:11:24;;;;;;;9.85;6.32;;;;;;;-1.62;90.01;99051.53;4171745;28;20132;-71
2022/02/13 01:13:24;;;;;;;8.90;5.80;;;;;;;-1.70;90.48;99059.16;4170477;28;20496;-71
2022/02/13 01:15:25;;;;;;;9.20;5.05;;;;;;;-1.80;90.76;99055.72;4171801;28;20135;-71
2022/02/13 01:17:25;;;;;;;10.30;5.80;;;;;;;-1.85;91.16;99067.41;4171072;28;20568;-71
2022/02/13 01:19:26;;;;;;;8.35;5.00;;;;;;;-1.87;92.71;99066.09;4170375;28;20052;-71
2022/02/13 01:21:29;;;;;;;13.75;6.00;;;;;;;-1.96;90.63;99062.34;4171517;28;20081;-71
2022/02/13 01:23:29;;;;;;;10.00;5.80;;;;;;;-1.98;92.27;99068.06;4171497;28;20053;-71
2022/02/13 01:25:29;;;;;;;11.38;6.78;;;;;;;-2.06;91.74;99064.06;4171701;28;20124;-71
2022/02/13 01:27:30;;;;;;;10.23;5.80;;;;;;;-2.13;92.49;99052.69;4169952;28;20056;-71
2022/02/13 01:29:30;;;;;;;11.63;6.57;;;;;;;-2.18;91.44;99060.03;4171691;28;20100;-71
2022/02/13 01:31:31;;;;;;;13.98;6.53;;;;;;;-2.29;91.56;99060.13;4171354;28;20048;-71
2022/02/13 01:33:33;;;;;;;9.15;5.47;;;;;;;-2.38;91.97;99060.97;4171322;28;20431;-71
2022/02/13 01:35:34;;;;;;;10.15;6.32;;;;;;;-2.39;92.93;99059.38;4171170;28;20045;-71
2022/02/13 01:37:34;;;;;;;11.82;6.63;;;;;;;-2.38;93.34;99060.97;4170252;28;20056;-71
2022/02/13 01:39:34;;;;;;;10.25;6.20;;;;;;;-2.28;92.89;99055.50;4171472;28;20048;-71
2022/02/13 01:41:35;;;;;;;8.07;5.03;;;;;;;-2.22;92.49;99051.69;4170481;28;20444;-71
2022/02/13 01:43:35;;;;;;;10.23;5.38;;;;;;;-2.12;91.94;99054.31;4169954;28;20456;-71
2022/02/13 01:45:36;;;;;;;11.57;5.75;;;;;;;-2.04;91.23;99053.72;4170580;28;20040;-71
2022/02/13 01:47:37;;;;;;;8.07;4.90;;;;;;;-1.98;91.13;99054.50;4170126;28;20045;-71
2022/02/13 01:49:37;;;;;;;12.38;5.63;;;;;;;-1.90;91.26;99062.03;4170694;28;20182;-71
2022/02/13 01:51:37;;;;;;;11.32;5.43;;;;;;;-1.91;91.07;99063.13;4171129;28;20559;-71
2022/02/13 01:53:38;;;;;;;8.38;5.30;;;;;;;-1.92;90.21;99060.69;4171107;28;20094;-71
2022/02/13 01:55:38;;;;;;;9.13;5.28;;;;;;;-1.97;89.36;99053.41;4169578;28;20049;-71
2022/02/13 01:57:38;;;;;;;10.48;5.70;;;;;;;-1.85;92.13;99063.91;4170049;28;20524;-71
2022/02/13 01:59:40;;;;;;;9.60;5.38;;;;;;;-1.85;91.64;99056.56;4170825;28;20128;-71
2022/02/13 02:01:41;;;;;;;10.40;4.93;;;;;;;-1.70;89.61;99039.38;4170493;28;20414;-71
2022/02/13 02:03:42;;;;;;;8.05;4.57;;;;;;;-1.64;88.80;99035.53;4170670;28;20087;-71
2022/02/13 02:05:42;;;;;;;9.07;5.10;;;;;;;-1.57;88.56;99037.88;4170776;28;20128;-71
2022/02/13 02:07:42;;;;;;;8.93;5.10;;;;;;;-1.56;88.28;99034.09;4170380;28;20413;-71
2022/02/13 02:10:01;;;;;;;10.50;5.32;;;;;;;-1.63;89.58;99020.88;4170785;28;20133;-71
2022/02/13 02:12:05;;;;;;;8.43;4.72;;;;;;;-1.62;90.78;99024.38;4170788;28;20137;-71
2022/02/13 02:14:05;;;;;;;8.32;4.72;;;;;;;-1.62;91.83;99018.97;4171039;28;20041;-71
2022/02/13 02:16:08;;;;;;;8.45;5.05;;;;;;;-1.63;91.45;99025.47;4170528;28;20150;-71
2022/02/13 02:18:08;;;;;;;9.40;5.53;;;;;;;-1.67;90.98;99013.56;4169598;28;20087;-71
2022/02/13 02:20:09;;;;;;;7.85;4.72;;;;;;;-1.67;91.49;99014.38;4170619;28;20311;-71
2022/02/13 02:22:09;;;;;;;8.48;5.20;;;;;;;-1.71;91.37;99021.47;4170125;28;20423;-71
2022/02/13 02:24:12;;;;;;;7.55;4.32;;;;;;;-1.45;93.32;99022.84;4170842;28;20614;-71
2022/02/13 02:26:19;;;;;;;10.60;4.80;;;;;;;-1.45;89.05;99013.91;4170641;28;20040;-71
2022/02/13 02:28:20;;;;;;;9.13;5.10;;;;;;;-1.46;89.36;99013.09;4170102;28;20190;-71
2022/02/13 02:30:20;;;;;;;9.00;4.70;;;;;;;-1.45;90.52;99022.06;4170620;28;20064;-71
2022/02/13 02:32:21;;;;;;;8.48;4.90;;;;;;;-1.53;89.59;99018.06;4170273;28;20057;-71
2022/02/13 02:34:21;;;;;;;10.80;5.50;;;;;;;-1.54;90.15;99018.34;4170635;28;20480;-71
2022/02/13 02:36:21;;;;;;;10.65;5.82;;;;;;;-1.59;91.02;99005.63;4170347;28;20460;-71
2022/02/13 02:38:23;;;;;;;6.95;5.00;;;;;;;-1.60;91.41;98995.06;4170139;28;20470;-71
2022/02/13 02:40:23;;;;;;;9.57;5.43;;;;;;;-1.62;91.53;99003.47;4170469;28;20045;-71
2022/02/13 02:42:24;;;;;;;9.00;5.13;;;;;;;-1.71;91.53;98997.06;4170330;28;20032;-71
2022/02/13 02:44:24;;;;;;;10.93;5.53;;;;;;;-1.78;91.33;98997.38;4170679;28;20064;-71
2022/02/13 02:46:25;;;;;;;8.90;5.65;;;;;;;-1.80;91.24;98999.56;4169713;28;20052;-71
2022/02/13 02:48:25;;;;;;;11.35;5.65;;;;;;;-1.90;91.28;98980.69;4169534;28;20471;-71
2022/02/13 02:50:26;;;;;;;8.55;4.97;;;;;;;-1.90;92.22;98971.72;4170388;28;20109;-71
2022/02/13 02:52:26;;;;;;;8.43;4.82;;;;;;;-1.88;92.26;98969.53;4170255;28;20068;-71
2022/02/13 02:54:26;;;;;;;9.57;5.07;;;;;;;-1.89;92.13;98976.06;4169540;28;20129;-71
2022/02/13 02:56:27;;;;;;;9.63;5.50;;;;;;;-1.93;91.96;98978.50;4169890;28;20041;-71
2022/02/13 02:58:27;;;;;;;8.85;4.95;;;;;;;-1.99;92.31;98966.94;4169979;28;20492;-71
2022/02/13 03:00:28;;;;;;;8.85;5.28;;;;;;;-1.98;92.58;98967.72;4169835;28;20045;-71
2022/02/13 03:02:28;;;;;;;10.27;5.47;;;;;;;-2.05;92.79;98959.91;4169559;28;20136;-71
2022/02/13 03:04:28;;;;;;;9.43;5.63;;;;;;;-2.08;92.74;98951.53;4170341;28;20041;-71
2022/02/13 03:06:29;;;;;;;10.48;5.10;;;;;;;-2.08;93.62;98946.91;4169620;28;20497;-71
2022/02/13 03:08:29;;;;;;;8.15;5.30;;;;;;;-2.17;90.44;98959.44;4169344;28;20331;-71
2022/02/13 03:10:30;;;;;;;11.50;6.20;;;;;;;-2.17;91.98;98951.31;4170351;28;20102;-71
2022/02/13 03:12:32;;;;;;;7.53;5.20;;;;;;;-2.24;91.52;98956.25;4169779;28;20482;-71
2022/02/13 03:14:32;;;;;;;9.82;5.50;;;;;;;-2.30;91.21;98952.78;4170028;28;20503;-71
2022/02/13 03:16:32;;;;;;;12.60;5.93;;;;;;;-2.31;92.57;98956.59;4168073;28;20192;-71
2022/02/13 03:18:33;;;;;;;11.18;5.70;;;;;;;-2.30;93.45;98958.22;4169237;28;20503;-71
2022/02/13 03:20:33;;;;;;;6.70;4.75;;;;;;;-2.29;93.28;98956.31;4168920;28;20049;-71
2022/02/13 03:22:34;;;;;;;11.00;5.80;;;;;;;-2.27;94.04;98954.94;4168742;28;20056;-71
2022/02/13 03:24:34;;;;;;;10.70;5.57;;;;;;;-2.28;93.01;98957.91;4168612;28;20087;-71
2022/02/13 03:26:34;;;;;;;10.40;5.85;;;;;;;-2.26;93.68;98970.09;4168534;28;20055;-71
2022/02/13 03:28:35;;;;;;;9.13;5.05;;;;;;;-2.27;93.46;98959.53;4168838;28;20136;-71
2022/02/13 03:30:36;;;;;;;9.98;5.65;;;;;;;-2.23;94.29;98946.22;4168690;28;20078;-70
2022/02/13 03:32:36;;;;;;;8.05;5.03;;;;;;;-2.26;94.18;98948.41;4168503;28;20045;-70
2022/02/13 03:34:37;;;;;;;12.85;6.05;;;;;;;-2.24;94.30;98960.88;4169969;28;20085;-70
2022/02/13 03:36:37;;;;;;;8.48;5.32;;;;;;;-2.30;92.94;98955.50;4168915;28;20112;-70
2022/02/13 03:38:37;;;;;;;9.77;5.20;;;;;;;-2.40;92.35;98958.28;4168538;28;20076;-70
2022/02/13 03:40:38;;;;;;;10.18;5.50;;;;;;;-2.37;94.87;98954.19;4169437;28;20037;-70
2022/02/13 03:42:39;;;;;;;10.20;5.68;;;;;;;-2.37;94.91;98951.47;4169615;28;20116;-70
2022/02/13 03:44:39;;;;;;;8.27;5.15;;;;;;;-2.37;95.40;98944.16;4169536;28;20041;-70
2022/02/13 03:46:39;;;;;;;9.77;5.90;;;;;;;-2.44;92.91;98940.16;4168657;28;20202;-70
2022/02/13 03:48:40;;;;;;;7.53;5.13;;;;;;;-2.44;94.53;98940.16;4169830;28;20041;-70
2022/02/13 03:50:40;;;;;;;8.15;5.25;;;;;;;-2.52;93.42;98948.88;4169669;28;20528;-70
2022/02/13 03:52:41;;;;;;;9.93;5.57;;;;;;;-2.59;91.90;98943.75;4169686;28;20476;-70
2022/02/13 03:54:41;;;;;;;9.90;5.03;;;;;;;-2.67;92.48;98933.50;4169329;28;20051;-70
2022/02/13 03:56:42;;;;;;;8.65;5.43;;;;;;;-2.69;92.55;98946.53;4167266;28;20073;-70
2022/02/13 03:58:42;;;;;;;9.88;5.38;;;;;;;-2.76;93.69;98949.56;4169734;28;20124;-70
2022/02/13 04:00:43;;;;;;;9.38;5.80;;;;;;;-2.83;93.26;98947.13;4167919;28;20257;-70
2022/02/13 04:02:43;;;;;;;11.65;5.90;;;;;;;-2.84;93.14;98947.44;4167415;28;20707;-70
2022/02/13 04:04:44;;;;;;;8.38;5.88;;;;;;;-2.78;95.31;98953.63;4168727;28;20049;-70
2022/02/13 04:06:44;;;;;;;9.60;5.28;;;;;;;-2.77;96.67;98945.22;4171554;28;20046;-70
2022/02/13 04:08:44;;;;;;;11.15;5.85;;;;;;;-2.80;95.57;98953.09;4172641;28;20043;-70
2022/02/13 04:10:44;;;;;;;10.73;6.30;;;;;;;-2.81;96.71;98936.06;4172652;28;20318;-70
2022/02/13 04:12:45;;;;;;;15.07;7.03;;;;;;;-2.79;97.54;98939.28;4172569;28;20099;-70
2022/02/13 04:14:45;;;;;;;9.48;6.32;;;;;;;-2.89;96.73;98937.44;4171849;28;20469;-70
2022/02/13 04:16:45;;;;;;;10.98;6.18;;;;;;;-2.88;97.55;98924.72;4171647;28;20052;-70
2022/02/13 04:18:46;;;;;;;15.95;6.13;;;;;;;-2.86;96.93;98934.16;4172957;28;20129;-70
2022/02/13 04:20:46;;;;;;;10.75;5.88;;;;;;;-2.88;95.73;98927.44;4171720;28;20080;-70
2022/02/13 04:22:47;;;;;;;12.30;6.13;;;;;;;-2.87;96.37;98929.03;4172006;28;20223;-70
2022/02/13 04:24:47;;;;;;;8.85;5.30;;;;;;;-2.99;94.61;98926.66;4171876;28;20094;-70
2022/02/13 04:26:47;;;;;;;12.07;6.68;;;;;;;-3.02;94.97;98921.78;4171539;28;20366;-70
2022/02/13 04:28:48;;;;;;;10.00;6.18;;;;;;;-3.14;93.38;98922.13;4170681;28;20052;-70
2022/02/13 04:30:48;;;;;;;12.88;6.43;;;;;;;-3.21;94.40;98923.53;4172484;28;20392;-70
2022/02/13 04:32:49;;;;;;;15.23;8.30;;;;;;;-3.27;94.46;98920.00;4171656;28;20452;-70
2022/02/13 04:34:49;;;;;;;19.42;9.70;;;;;;;-3.35;94.73;98917.06;4172050;28;20556;-70
2022/02/13 04:36:50;;;;;;;17.02;9.00;;;;;;;-3.45;95.18;98913.31;4171778;28;20041;-70
2022/02/13 04:38:50;;;;;;;15.95;8.52;;;;;;;-3.54;95.61;98908.75;4172596;28;20489;-70
2022/02/13 04:40:50;;;;;;;15.27;8.25;;;;;;;-3.57;97.05;98918.22;4172203;28;20047;-70
2022/02/13 04:42:51;;;;;;;15.32;7.95;;;;;;;-3.48;98.40;98919.25;4171982;28;20040;-70
2022/02/13 04:44:52;;;;;;;16.35;8.43;;;;;;;-3.53;97.45;98915.78;4172858;28;20439;-70
2022/02/13 04:46:52;;;;;;;18.83;8.43;;;;;;;-3.55;98.24;98905.25;4171219;28;20041;-70
2022/02/13 04:48:52;;;;;;;14.82;7.53;;;;;;;-3.57;99.41;98901.97;4171971;28;20137;-70
2022/02/13 04:50:53;;;;;;;15.77;8.13;;;;;;;-3.63;98.74;98903.09;4172215;28;20036;-70
2022/02/13 04:52:54;;;;;;;15.77;7.43;;;;;;;-3.63;98.38;98905.81;4171269;28;20520;-70
2022/02/13 04:54:55;;;;;;;15.05;7.60;;;;;;;-3.67;98.10;98892.00;4172124;28;20076;-70
2022/02/13 04:56:55;;;;;;;12.07;7.13;;;;;;;-3.61;99.59;98886.59;4170729;28;20048;-70
2022/02/13 04:58:55;;;;;;;11.40;6.60;;;;;;;-3.70;98.96;98879.06;4172328;28;20565;-70
2022/02/13 05:00:56;;;;;;;10.77;7.20;;;;;;;-3.79;98.15;98874.47;4171539;28;20056;-70
2022/02/13 05:02:56;;;;;;;16.63;7.30;;;;;;;-3.78;99.81;98873.41;4171882;28;20131;-70
2022/02/13 05:04:57;;;;;;;10.50;6.72;;;;;;;-3.82;100.00;98873.13;4172375;28;20437;-70
2022/02/13 05:06:57;;;;;;;11.85;5.88;;;;;;;-3.90;97.57;98886.38;4170640;28;20445;-70
2022/02/13 05:08:58;;;;;;;14.30;6.10;;;;;;;-3.95;98.16;98884.53;4171795;28;20129;-70
2022/02/13 05:10:58;;;;;;;11.70;7.10;;;;;;;-3.91;100.00;98882.06;4171761;28;20452;-70
2022/02/13 05:12:58;;;;;;;14.15;7.28;;;;;;;-3.98;99.21;98877.75;4171509;28;20539;-70
2022/02/13 05:14:58;;;;;;;14.00;7.72;;;;;;;-4.04;98.81;98878.84;4171781;28;20073;-70
2022/02/13 05:16:59;;;;;;;15.88;7.97;;;;;;;-4.12;97.68;98887.53;4170802;28;20164;-70
2022/02/13 05:18:59;;;;;;;14.82;6.97;;;;;;;-4.25;98.17;98879.97;4171571;28;20231;-70
2022/02/13 05:20:59;;;;;;;13.43;7.10;;;;;;;-4.27;99.00;98884.81;4171910;28;20075;-70
2022/02/13 05:23:00;;;;;;;12.85;7.03;;;;;;;-4.36;99.29;98876.47;4171437;28;20083;-70
2022/02/13 05:25:00;;;;;;;16.75;9.57;;;;;;;-4.39;99.66;98885.09;4171818;28;20071;-70
2022/02/13 05:27:00;;;;;;;14.90;7.82;;;;;;;-4.48;99.99;98888.59;4170379;28;20471;-70
2022/02/13 05:29:02;;;;;;;13.77;6.65;;;;;;;-4.56;99.89;98881.84;4171745;28;20135;-70
2022/02/13 05:31:03;;;;;;;15.13;7.30;;;;;;;-4.60;100.00;98875.38;4171751;28;20554;-70
2022/02/13 05:33:03;;;;;;;16.98;8.20;;;;;;;-4.56;100.00;98869.16;4171368;28;20327;-70
2022/02/13 05:35:04;;;;;;;14.05;6.35;;;;;;;-4.44;100.00;98874.31;4171547;28;20061;-70
2022/02/13 05:37:04;;;;;;;10.98;6.28;;;;;;;-4.49;100.00;98868.06;4171073;28;20295;-70
2022/02/13 05:39:05;;;;;;;13.43;6.97;;;;;;;-4.35;100.00;98869.16;4171300;28;20072;-70
2022/02/13 05:41:05;;;;;;;14.10;6.85;;;;;;;-4.36;100.00;98856.75;4171121;28;20185;-70
2022/02/13 05:43:05;;;;;;;10.45;6.40;;;;;;;-4.39;100.00;98860.78;4170978;28;20083;-70
2022/02/13 05:45:06;;;;;;;13.70;6.30;;;;;;;-4.47;100.00;98863.22;4171443;28;20037;-70
2022/02/13 05:47:07;;;;;;;15.65;7.90;;;;;;;-4.46;100.00;98862.97;4170477;28;20066;-70
2022/02/13 05:49:08;;;;;;;12.65;6.97;;;;;;;-4.44;100.00;98863.50;4171094;28;20055;-70
2022/02/13 05:51:10;;;;;;;13.52;8.25;;;;;;;-4.27;100.00;98860.50;4171625;28;20508;-70
2022/02/13 05:53:10;;;;;;;14.15;7.32;;;;;;;-4.25;100.00;98852.94;4171175;28;20587;-70
2022/02/13 05:55:11;;;;;;;12.60;7.10;;;;;;;-4.19;100.00;98851.03;4171016;28;20145;-70
2022/02/13 05:57:11;;;;;;;11.85;6.20;;;;;;;-4.22;100.00;98841.56;4170261;28;20149;-70
2022/02/13 05:59:12;;;;;;;13.30;6.78;;;;;;;-4.19;100.00;98840.25;4171502;28;20052;-70
2022/02/13 06:01:13;;;;;;;13.98;6.18;;;;;;;-4.32;98.84;98847.81;4170639;28;20562;-70
2022/02/13 06:03:13;;;;;;;14.85;7.10;;;;;;;-4.38;98.11;98840.00;4170821;28;20063;-70
2022/02/13 06:05:13;;;;;;;14.38;7.80;;;;;;;-4.28;100.00;98848.09;4171413;28;20293;-70
2022/02/13 06:07:15;;;;;;;18.27;9.98;;;;;;;-4.30;100.00;98845.66;4170138;28;20066;-70
2022/02/13 06:09:16;;;;;;;21.30;10.82;;;;;;;-4.39;99.45;98841.88;4170822;28;20047;-70
2022/02/13 06:11:17;;;;;;;22.10;9.65;;;;;;;-4.40;99.37;98850.25;4170459;28;20041;-70
2022/02/13 06:13:17;;;;;;;20.00;9.23;;;;;;;-4.40;100.00;98847.53;4171019;28;20048;-70
2022/02/13 06:15:17;;;;;;;18.25;8.55;;;;;;;-4.29;99.77;98849.19;4170844;28;20469;-70
2022/02/13 06:17:18;;;;;;;14.77;8.70;;;;;;;-4.34;98.46;98855.38;4169951;28;20049;-70
2022/02/13 06:19:18;;;;;;;15.68;8.90;;;;;;;-4.41;98.54;98851.31;4170846;28;20044;-70
2022/02/13 06:21:20;;;;;;;18.23;8.95;;;;;;;-4.45;99.47;98852.97;4170681;28;20776;-70
2022/02/13 06:23:20;;;;;;;18.40;10.27;;;;;;;-4.58;98.78;98844.31;4170645;28;20084;-70
2022/02/13 06:25:21;;;;;;;20.35;11.13;;;;;;;-4.58;99.37;98848.91;4170312;28;20041;-70
2022/02/13 06:27:21;;;;;;;22.75;11.40;;;;;;;-4.59;99.89;98841.88;4169684;28;20056;-70
2022/02/13 06:29:22;;;;;;;23.02;10.10;;;;;;;-4.53;100.00;98847.03;4169489;28;20056;-70
2022/02/13 06:31:22;;;;;;;18.92;10.65;;;;;;;-4.57;99.96;98837.81;4170513;28;20045;-70
2022/02/13 06:33:23;;;;;;;20.92;10.63;;;;;;;-4.51;100.00;98838.66;4171013;28;20037;-71
2022/02/13 06:35:24;;;;;;;15.75;9.63;;;;;;;-4.59;100.00;98828.38;4169503;28;20045;-70
2022/02/13 06:37:24;;;;;;;19.73;10.35;;;;;;;-4.60;100.00;98832.97;4167420;28;20053;-70
2022/02/13 06:39:24;;;;;;;19.10;9.18;;;;;;;-4.56;99.89;98833.22;4167617;28;20076;-70
2022/02/13 06:41:25;;;;;;;13.30;7.85;;;;;;;-4.59;99.03;98822.97;4169213;28;20068;-70
2022/02/13 06:43:25;;;;;;;14.20;7.70;;;;;;;-4.53;99.59;98819.22;4169735;28;20546;-70
2022/02/13 06:45:26;;;;;;;13.82;7.50;;;;;;;-4.54;99.05;98818.41;4167653;28;20059;-70
2022/02/13 06:47:26;;;;;;;15.55;8.75;;;;;;;-4.43;100.00;98815.69;4168146;28;20051;-70
2022/02/13 06:49:27;;;;;;;15.15;8.73;;;;;;;-4.31;100.00;98813.50;4092449;28;20048;-70
2022/02/13 06:51:27;;;;;;;18.55;8.57;;;;;;;-4.23;100.00;98821.03;4171771;28;20055;-70
2022/02/13 06:53:28;;;;;;;12.38;6.80;;;;;;;-4.21;98.78;98810.78;4169558;28;20113;-70
2022/02/13 06:55:29;;;;;;;13.50;7.80;;;;;;;-4.13;97.46;98804.84;4168933;28;20076;-70
2022/02/13 06:57:31;;;;;;;14.35;7.72;;;;;;;-4.05;97.56;98816.97;4167383;28;20045;-70
2022/02/13 06:59:31;;;;;;;16.77;6.90;;;;;;;-3.97;94.97;98813.72;4168584;28;20454;-70
2022/02/13 07:01:31;;;;;;;11.77;5.00;;;;;;;-3.89;91.27;98812.31;4169127;28;20108;-70
2022/02/13 07:03:32;;;;;;;9.35;5.07;;;;;;;-3.60;90.38;98817.88;4169394;28;20144;-70
2022/02/13 07:05:32;;;;;;;11.20;6.57;;;;;;;-3.21;93.20;98823.38;4168975;28;20064;-70
2022/02/13 07:07:32;;;;;;;15.00;7.22;;;;;;;-3.14;88.44;98813.06;4168607;28;20072;-70
2022/02/13 07:09:33;;;;;;;22.73;9.70;;;;;;;-3.09;87.58;98818.41;4167864;28;20123;-70
2022/02/13 07:11:34;;;;;;;16.30;8.77;;;;;;;-3.12;87.06;98819.00;4169068;28;20095;-70
2022/02/13 07:13:34;;;;;;;15.68;8.70;;;;;;;-3.11;88.26;98824.13;4169656;28;20532;-70
2022/02/13 07:15:35;;;;;;;16.23;8.52;;;;;;;-3.11;89.24;98809.78;4168949;28;20041;-70
2022/02/13 07:17:37;;;;;;;15.00;8.05;;;;;;;-3.14;89.55;98813.88;4168261;28;20045;-70
2022/02/13 07:19:37;;;;;;;12.38;7.47;;;;;;;-3.12;90.42;98811.69;4169070;28;20135;-70
2022/02/13 07:21:38;;;;;;;13.27;7.00;;;;;;;-3.13;87.64;98814.69;4168323;28;20296;-70
2022/02/13 07:23:38;;;;;;;14.20;7.03;;;;;;;-3.14;87.29;98807.66;4168219;28;20033;-70
2022/02/13 07:25:38;;;;;;;20.25;8.30;;;;;;;-3.12;88.70;98811.69;4168737;28;20044;-70
2022/02/13 07:27:39;;;;;;;14.25;7.90;;;;;;;-3.17;89.65;98811.69;4168612;28;20045;-70
2022/02/13 07:29:39;;;;;;;14.75;8.35;;;;;;;-3.18;89.39;98817.41;4169285;28;20132;-70
2022/02/13 07:31:40;;;;;;;15.88;7.63;;;;;;;-3.21;90.68;98813.38;4169790;28;20125;-70
2022/02/13 07:33:40;;;;;;;14.55;8.38;;;;;;;-3.19;91.48;98813.09;4169108;28;20055;-70
2022/02/13 07:35:43;;;;;;;15.52;8.27;;;;;;;-3.21;91.00;98813.38;4168558;28;20140;-70
2022/02/13 07:37:43;;;;;;;;;;;;;;;-3.11;88.47;98820.63;4168721;28;20111;-69
2022/02/13 07:39:43;;;;;;;11.02;6.72;;;;;;;-3.13;89.77;98811.97;4168908;28;19923;-70
2022/02/13 07:41:43;;;;;;;12.27;7.30;;;;;;;-3.15;90.60;98817.63;4170536;28;20045;-70
2022/02/13 07:43:45;;;;;;;10.90;7.10;;;;;;;-3.16;91.76;98807.91;4169467;28;20110;-70
2022/02/13 07:45:45;;;;;;;15.98;8.48;;;;;;;-3.15;91.41;98806.00;4168703;28;20400;-70
2022/02/13 07:47:46;;;;;;;11.40;7.22;;;;;;;-3.19;91.45;98811.19;4168847;28;20049;-70
2022/02/13 07:49:47;;;;;;;13.52;6.97;;;;;;;-3.14;92.16;98802.22;4168988;28;20337;-70
2022/02/13 07:51:47;;;;;;;17.20;9.25;;;;;;;-3.12;91.29;98810.88;4168919;28;20477;-70
2022/02/13 07:53:47;;;;;;;28.25;12.60;;;;;;;-3.13;90.87;98801.94;4169959;28;20077;-70
2022/02/13 07:55:48;;;;;;;24.63;14.05;;;;;;;-3.09;90.79;98801.38;4169706;28;20473;-70
2022/02/13 07:57:48;;;;;;;26.70;14.43;;;;;;;-3.04;91.77;98804.88;4168697;28;20083;-70
2022/02/13 07:59:49;;;;;;;26.02;14.68;;;;;;;-2.97;91.13;98799.16;4169714;28;20083;-70
2022/02/13 08:01:49;;;;;;;24.45;12.63;;;;;;;-2.90;91.88;98799.59;4168737;28;20041;-70
2022/02/13 08:03:49;;;;;;;25.75;14.63;;;;;;;-2.82;91.28;98805.22;4169080;28;20457;-70
2022/02/13 08:05:50;;;;;;;28.88;15.43;;;;;;;-2.81;90.96;98806.06;4168273;28;20291;-70
2022/02/13 08:07:50;;;;;;;20.05;12.07;;;;;;;-2.72;91.71;98796.25;4168339;28;20044;-70
2022/02/13 08:09:51;;;;;;;23.70;12.98;;;;;;;-2.71;91.02;98797.03;4169378;28;20063;-70
2022/02/13 08:11:51;;;;;;;25.15;13.27;;;;;;;-2.67;90.46;98793.47;4167930;28;20056;-70
2022/02/13 08:13:51;;;;;;;22.20;12.55;;;;;;;-2.60;91.12;98801.28;4169433;28;20045;-70
2022/02/13 08:15:53;;;;;;;22.00;10.45;;;;;;;-2.49;91.29;98794.66;4169390;28;20045;-70
2022/02/13 08:17:53;;;;;;;20.88;11.07;;;;;;;-2.41;90.04;98787.81;4168692;28;20805;-70
2022/02/13 08:19:53;;;;;;;14.25;8.77;;;;;;;-2.33;89.71;98798.84;4168911;28;20083;-70
2022/02/13 08:21:53;;;;;;;17.15;9.57;;;;;;;-2.26;89.42;98793.09;4168657;28;20119;-70
2022/02/13 08:23:54;;;;;;;16.80;10.45;;;;;;;-2.18;87.94;98788.97;4169334;28;20499;-70
2022/02/13 08:25:54;;;;;;;16.08;9.93;;;;;;;-1.99;90.25;98789.81;4168116;28;20420;-70
2022/02/13 08:27:55;;;;;;;17.48;10.38;;;;;;;-1.99;88.72;98790.66;4167775;28;20040;-70
2022/02/13 08:29:56;;;;;;;16.98;9.20;;;;;;;-1.98;88.45;98783.34;4169251;28;20037;-70
2022/02/13 08:31:56;;;;;;;14.57;8.60;;;;;;;-1.91;88.08;98791.91;4169634;28;20330;-70
2022/02/13 08:33:57;;;;;;;16.52;9.98;;;;;;;-1.89;88.10;98784.31;4169395;28;20079;-70
2022/02/13 08:35:57;;;;;;;14.77;8.65;;;;;;;-1.81;88.72;98791.00;4169186;28;20059;-70
2022/02/13 08:37:57;;;;;;;14.05;8.73;;;;;;;-1.74;89.18;98783.28;4167647;28;20128;-70
2022/02/13 08:39:58;;;;;;;16.58;9.13;;;;;;;-1.73;88.45;98790.38;4167351;28;20064;-70
2022/02/13 08:41:58;;;;;;;10.73;7.20;;;;;;;-1.73;88.19;98780.31;4168815;28;20482;-70
2022/02/13 08:43:58;;;;;;;8.90;6.03;;;;;;;-1.67;87.90;98777.53;4168627;28;20128;-70
2022/02/13 08:45:59;;;;;;;13.13;7.32;;;;;;;-1.56;88.37;98787.97;4168866;28;20106;-70
2022/02/13 08:47:59;;;;;;;9.93;6.07;;;;;;;-1.49;87.33;98783.00;4168419;28;20555;-70
2022/02/13 08:50:00;;;;;;;8.52;5.95;;;;;;;-1.43;86.90;98781.00;4168152;28;20052;-70
2022/02/13 08:52:00;;;;;;;11.75;6.35;;;;;;;-1.35;86.97;98772.22;4164959;28;20049;-70
2022/02/13 08:54:00;;;;;;;9.50;5.57;;;;;;;-1.27;85.63;98776.97;4168415;28;20052;-71
2022/02/13 08:56:01;;;;;;;51.67;23.05;;;;;;;-1.04;83.53;98777.22;4168906;28;20037;-70
2022/02/13 08:58:01;;;;;;;20.70;10.80;;;;;;;-0.94;84.03;98777.06;4170304;28;20417;-70
2022/02/13 09:00:06;;;;;;;36.88;15.80;;;;;;;-0.88;85.31;98771.25;4116935;28;20029;-70
2022/02/13 09:02:06;;;;;;;23.95;13.07;;;;;;;-0.80;85.11;98774.41;4174669;28;20045;-70
2022/02/13 09:04:07;;;;;;;19.00;9.63;;;;;;;-0.76;85.54;98775.41;4169776;28;20412;-70
2022/02/13 09:06:08;;;;;;;16.33;7.60;;;;;;;-0.69;85.19;98776.66;4171610;28;20025;-70
2022/02/13 09:08:08;;;;;;;15.20;7.60;;;;;;;-0.61;85.46;98773.25;4170318;28;20073;-70
2022/02/13 09:10:11;;;;;;;11.10;6.45;;;;;;;-0.51;84.56;98766.81;4171076;28;20385;-70
2022/02/13 09:12:15;;;;;;;11.82;6.57;;;;;;;-0.43;84.64;98771.56;4171715;28;20141;-70
2022/02/13 09:14:15;;;;;;;18.02;9.30;;;;;;;-0.34;84.54;98760.81;4171315;28;20035;-70
2022/02/13 09:16:15;;;;;;;21.25;10.98;;;;;;;-0.27;85.23;98761.25;4171623;28;20461;-69
2022/02/13 09:18:15;;;;;;;18.25;8.73;;;;;;;-0.24;85.19;98759.84;4170615;28;20024;-70
2022/02/13 09:20:16;;;;;;;15.95;8.40;;;;;;;-0.19;85.30;98765.97;4171293;28;20039;-70
2022/02/13 09:22:17;;;;;;;13.68;8.35;;;;;;;-0.11;84.28;98762.56;4171015;28;20407;-70